Time;durP1;ratioP1;P1;durP2;ratioP2;P2;SDS_P1;SDS_P2;PMS_P1;PMS_P2;Temp;Humidity;BMP_temperature;BMP_pressure;BME280_temperature;BME280_humidity;BME280_pressure;Samples;Min_cycle;Max_cycle;Signal;HPM_P1;HPM_P2
2021/09/23 00:00:21;;;;;;;15.03;12.90;;;12.20;99.90;;;;;;6141683;23;20506;-88
2021/09/23 00:03:01;;;;;;;13.27;11.83;;;12.20;99.90;;;;;;6143142;23;20476;-89
2021/09/23 00:05:30;;;;;;;12.60;11.30;;;12.20;99.90;;;;;;6130859;23;20400;-90
2021/09/23 00:07:58;;;;;;;13.37;11.70;;;12.10;99.90;;;;;;6129321;23;20443;-90
2021/09/23 00:10:27;;;;;;;15.50;13.27;;;12.10;99.90;;;;;;6128549;23;20436;-89
2021/09/23 00:12:57;;;;;;;17.80;14.17;;;12.00;99.90;;;;;;6128731;23;20906;-89
2021/09/23 00:15:25;;;;;;;13.53;12.10;;;11.90;99.90;;;;;;6128463;23;20879;-90
2021/09/23 00:17:55;;;;;;;14.90;12.03;;;11.90;99.90;;;;;;6128639;23;20469;-90
2021/09/23 00:20:23;;;;;;;17.30;12.60;;;11.90;99.90;;;;;;6141797;23;20506;-89
2021/09/23 00:22:50;;;;;;;13.93;11.80;;;11.90;99.90;;;;;;6131241;23;20401;-89
2021/09/23 00:25:17;;;;;;;13.33;12.00;;;11.90;99.90;;;;;;6149015;23;20392;-88
2021/09/23 00:27:44;;;;;;;15.20;13.53;;;11.90;99.90;;;;;;6151653;23;20432;-89
2021/09/23 00:30:14;;;;;;;15.70;13.37;;;11.90;99.90;;;;;;6136712;23;20432;-90
2021/09/23 00:32:41;;;;;;;13.07;11.77;;;11.70;99.90;;;;;;6128888;23;20731;-90
2021/09/23 00:35:09;;;;;;;13.23;11.87;;;11.70;99.90;;;;;;6128113;23;20421;-89
2021/09/23 00:37:36;;;;;;;12.93;11.60;;;11.60;99.90;;;;;;6129556;23;20404;-89
2021/09/23 00:40:07;;;;;;;15.70;13.77;;;11.60;99.90;;;;;;6135722;23;20437;-88
2021/09/23 00:42:34;;;;;;;14.30;12.20;;;11.60;99.90;;;;;;6139670;23;20453;-90
2021/09/23 00:45:03;;;;;;;16.70;12.27;;;11.60;99.90;;;;;;6129950;23;20426;-90
2021/09/23 00:47:31;;;;;;;17.20;15.50;;;11.60;99.90;;;;;;6128471;23;20440;-89
2021/09/23 00:49:58;;;;;;;13.60;12.20;;;11.60;99.90;;;;;;6130825;23;21010;-89
2021/09/23 00:52:27;;;;;;;12.37;11.17;;;11.60;99.90;;;;;;6134411;23;20421;-90
2021/09/23 00:54:55;;;;;;;14.63;12.77;;;11.60;99.90;;;;;;6129365;23;20436;-90
2021/09/23 00:57:22;;;;;;;12.43;10.80;;;11.60;99.90;;;;;;6128753;23;20380;-90
2021/09/23 00:59:51;;;;;;;13.17;11.80;;;11.60;99.90;;;;;;6127672;23;20764;-89
2021/09/23 01:02:18;;;;;;;14.90;12.40;;;11.50;99.90;;;;;;6130777;23;20437;-89
2021/09/23 01:04:46;;;;;;;15.83;12.50;;;11.50;99.90;;;;;;6137205;23;20392;-89
2021/09/23 01:07:15;;;;;;;16.17;12.20;;;11.50;99.90;;;;;;6129024;23;20938;-89
2021/09/23 01:09:45;;;;;;;14.10;11.60;;;11.50;99.90;;;;;;6128730;23;20438;-90
2021/09/23 01:12:12;;;;;;;15.17;12.27;;;11.50;99.90;;;;;;6129004;23;20403;-89
2021/09/23 01:14:39;;;;;;;15.53;12.90;;;11.50;99.90;;;;;;6128831;23;20733;-90
2021/09/23 01:17:06;;;;;;;15.93;13.47;;;11.40;99.90;;;;;;6128408;23;20404;-89
2021/09/23 01:19:34;;;;;;;14.03;12.77;;;11.40;99.90;;;;;;6127710;23;20441;-89
2021/09/23 01:22:03;;;;;;;16.37;12.67;;;11.30;99.90;;;;;;6128437;23;20410;-89
2021/09/23 01:24:30;;;;;;;17.27;11.73;;;11.30;99.90;;;;;;6128341;23;20414;-90
2021/09/23 01:26:57;;;;;;;17.63;13.10;;;11.30;99.90;;;;;;6128560;23;20449;-89
2021/09/23 01:29:24;;;;;;;15.33;12.20;;;11.30;99.90;;;;;;6145971;23;20435;-89
2021/09/23 01:31:51;;;;;;;15.77;12.73;;;11.30;99.90;;;;;;6153913;23;20376;-88
2021/09/23 01:34:18;;;;;;;17.00;13.10;;;11.20;99.90;;;;;;6153982;23;20396;-89
2021/09/23 01:36:46;;;;;;;13.00;11.70;;;11.10;99.90;;;;;;6153485;23;20476;-88
2021/09/23 01:39:18;;;;;;;15.20;12.00;;;11.20;99.90;;;;;;6153235;23;20488;-88
2021/09/23 01:41:46;;;;;;;11.90;10.83;;;11.30;99.90;;;;;;6143709;23;20463;-89
2021/09/23 01:44:12;;;;;;;13.10;11.80;;;11.30;99.90;;;;;;6133906;23;20392;-89
2021/09/23 01:46:39;;;;;;;12.40;11.07;;;11.20;99.90;;;;;;6153570;23;20417;-88
2021/09/23 01:49:07;;;;;;;18.17;13.07;;;11.20;99.90;;;;;;6153213;23;20431;-89
2021/09/23 01:51:33;;;;;;;13.97;11.87;;;11.20;99.90;;;;;;6153421;23;20414;-87
2021/09/23 01:54:00;;;;;;;14.40;12.23;;;11.20;99.90;;;;;;6150669;23;20410;-90
2021/09/23 01:56:29;;;;;;;13.90;11.13;;;11.30;99.90;;;;;;6134640;23;20411;-90
2021/09/23 01:58:55;;;;;;;11.97;10.67;;;11.20;99.90;;;;;;6133600;23;20939;-90
2021/09/23 02:01:22;;;;;;;12.10;10.93;;;11.20;99.90;;;;;;6130394;23;20412;-90
2021/09/23 02:03:49;;;;;;;13.83;11.30;;;11.20;99.90;;;;;;6131092;23;20407;-90
2021/09/23 02:06:16;;;;;;;11.03;9.93;;;11.20;99.90;;;;;;6139188;23;20473;-88
2021/09/23 02:08:43;;;;;;;14.10;11.60;;;11.20;99.90;;;;;;6133361;23;20455;-89
2021/09/23 02:11:11;;;;;;;15.40;11.57;;;11.10;99.90;;;;;;6130071;23;20506;-90
2021/09/23 02:13:40;;;;;;;13.67;10.80;;;11.10;99.90;;;;;;6129373;23;20504;-90
2021/09/23 02:16:07;;;;;;;12.00;10.50;;;11.10;99.90;;;;;;6128985;23;20420;-90
2021/09/23 02:18:34;;;;;;;15.30;10.93;;;11.10;99.90;;;;;;6128768;23;20396;-89
2021/09/23 02:21:01;;;;;;;12.40;10.60;;;11.00;99.90;;;;;;6130100;23;20464;-90
2021/09/23 02:23:27;;;;;;;12.03;10.50;;;11.00;99.90;;;;;;6129126;23;20753;-89
2021/09/23 02:25:54;;;;;;;13.77;11.80;;;11.00;99.90;;;;;;6143776;23;20455;-89
2021/09/23 02:28:21;;;;;;;15.27;12.20;;;11.00;99.90;;;;;;6136518;23;20442;-89
2021/09/23 02:30:49;;;;;;;12.60;10.53;;;11.00;99.90;;;;;;6146870;23;20408;-89
2021/09/23 02:33:16;;;;;;;11.23;10.03;;;10.90;99.90;;;;;;6127914;23;20412;-88
2021/09/23 02:35:43;;;;;;;17.30;11.70;;;10.80;99.90;;;;;;6129485;23;20403;-89
2021/09/23 02:38:09;;;;;;;19.57;12.23;;;10.80;99.90;;;;;;6129330;23;20419;-89
2021/09/23 02:40:36;;;;;;;13.10;10.80;;;10.70;99.90;;;;;;6153010;23;20510;-88
2021/09/23 02:43:03;;;;;;;23.53;12.57;;;10.70;99.90;;;;;;6141991;23;20860;-90
2021/09/23 02:45:30;;;;;;;15.10;11.70;;;10.70;99.90;;;;;;6128013;23;20446;-90
2021/09/23 02:47:58;;;;;;;13.47;11.40;;;10.70;99.90;;;;;;6144685;23;20450;-89
2021/09/23 02:50:25;;;;;;;19.90;10.97;;;10.70;99.90;;;;;;6149784;23;20416;-88
2021/09/23 02:52:52;;;;;;;12.27;10.97;;;10.70;99.90;;;;;;6133612;23;20743;-90
2021/09/23 02:55:18;;;;;;;13.37;11.33;;;10.60;99.90;;;;;;6130025;23;20419;-88
2021/09/23 02:57:45;;;;;;;13.97;10.73;;;10.70;99.90;;;;;;6135510;23;20403;-90
2021/09/23 03:00:13;;;;;;;13.20;10.40;;;10.60;99.90;;;;;;6148851;23;20425;-88
2021/09/23 03:02:39;;;;;;;12.60;11.30;;;10.50;99.90;;;;;;6133161;23;20409;-89
2021/09/23 03:05:09;;;;;;;14.03;11.13;;;10.50;99.90;;;;;;6144537;23;20380;-89
2021/09/23 03:07:35;;;;;;;16.23;11.60;;;10.50;99.90;;;;;;6131916;23;20444;-89
2021/09/23 03:10:02;;;;;;;13.30;11.17;;;10.60;99.90;;;;;;6140783;23;20506;-90
2021/09/23 03:12:29;;;;;;;18.63;12.43;;;10.60;99.90;;;;;;6130757;23;20739;-90
2021/09/23 03:14:56;;;;;;;13.03;11.73;;;10.60;99.90;;;;;;6128964;23;20422;-89
2021/09/23 03:17:23;;;;;;;16.07;12.33;;;10.50;99.90;;;;;;6129026;23;20381;-89
2021/09/23 03:19:51;;;;;;;16.57;12.63;;;10.50;99.90;;;;;;6137356;23;20432;-89
2021/09/23 03:22:19;;;;;;;16.33;13.00;;;10.50;99.90;;;;;;6129883;23;20471;-90
2021/09/23 03:24:47;;;;;;;17.03;13.70;;;10.50;99.90;;;;;;6129365;23;20418;-90
2021/09/23 03:27:14;;;;;;;18.80;14.17;;;10.40;99.90;;;;;;6128700;23;20921;-91
2021/09/23 03:29:41;;;;;;;20.33;14.70;;;10.40;99.90;;;;;;6128970;23;20934;-90
2021/09/23 03:32:08;;;;;;;16.50;14.20;;;10.40;99.90;;;;;;6129689;23;20411;-90
2021/09/23 03:34:35;;;;;;;19.20;17.03;;;10.50;99.90;;;;;;6150109;23;20468;-88
2021/09/23 03:37:02;;;;;;;17.07;14.50;;;10.40;99.90;;;;;;6151335;23;20728;-90
2021/09/23 03:39:30;;;;;;;23.63;15.30;;;10.40;99.90;;;;;;6133324;23;20431;-90
2021/09/23 03:41:57;;;;;;;21.77;15.70;;;10.40;99.90;;;;;;6135489;23;20416;-89
2021/09/23 03:44:23;;;;;;;19.17;14.87;;;10.40;99.90;;;;;;6132430;23;20427;-89
2021/09/23 03:46:50;;;;;;;17.57;14.17;;;10.30;99.90;;;;;;6140261;23;20429;-89
2021/09/23 03:49:17;;;;;;;17.13;14.10;;;10.30;99.90;;;;;;6128972;23;20454;-90
2021/09/23 03:51:44;;;;;;;17.10;15.40;;;10.30;99.90;;;;;;6138475;23;20429;-89
2021/09/23 03:54:11;;;;;;;20.83;14.77;;;10.30;99.90;;;;;;6140798;23;20396;-89
2021/09/23 03:56:39;;;;;;;15.17;13.47;;;10.30;99.90;;;;;;6129052;23;20403;-90
2021/09/23 03:59:06;;;;;;;18.87;14.40;;;10.20;99.90;;;;;;6129471;23;20435;-90
2021/09/23 04:01:32;;;;;;;18.20;15.17;;;10.30;99.90;;;;;;6129567;23;20695;-89
2021/09/23 04:03:59;;;;;;;15.50;12.90;;;10.30;99.90;;;;;;6129103;23;20411;-89
2021/09/23 04:06:26;;;;;;;15.23;11.00;;;10.30;99.90;;;;;;6128851;23;20411;-89
2021/09/23 04:08:53;;;;;;;14.73;13.10;;;10.30;99.90;;;;;;6128608;23;20947;-89
2021/09/23 04:11:20;;;;;;;13.73;12.30;;;10.30;99.90;;;;;;6128702;23;20402;-89
2021/09/23 04:13:48;;;;;;;13.33;11.93;;;10.20;99.90;;;;;;6128759;23;20418;-89
2021/09/23 04:16:14;;;;;;;16.37;13.13;;;10.20;99.90;;;;;;6144759;23;20422;-90
2021/09/23 04:18:41;;;;;;;16.50;12.23;;;10.20;99.90;;;;;;6130766;23;20442;-89
2021/09/23 04:21:08;;;;;;;18.60;13.90;;;10.20;99.90;;;;;;6128969;23;20416;-90
2021/09/23 04:23:35;;;;;;;22.83;15.53;;;10.20;99.90;;;;;;6129613;23;20411;-89
2021/09/23 04:26:01;;;;;;;18.43;14.63;;;10.20;99.90;;;;;;6129808;23;20414;-89
2021/09/23 04:28:28;;;;;;;24.10;13.90;;;10.10;99.90;;;;;;6129273;23;20970;-90
2021/09/23 04:30:57;;;;;;;16.33;13.80;;;10.10;99.90;;;;;;6132392;23;20418;-89
2021/09/23 04:33:25;;;;;;;21.03;14.00;;;10.00;99.90;;;;;;6130169;23;20405;-89
2021/09/23 04:35:51;;;;;;;22.67;15.40;;;10.00;99.90;;;;;;6128662;23;20494;-89
2021/09/23 04:38:19;;;;;;;17.30;12.90;;;10.00;99.90;;;;;;6128700;23;20465;-89
2021/09/23 04:40:46;;;;;;;16.10;12.53;;;10.00;99.90;;;;;;6128233;23;20416;-89
2021/09/23 04:43:13;;;;;;;20.40;14.80;;;10.00;99.90;;;;;;6136829;23;20420;-89
2021/09/23 04:45:40;;;;;;;23.03;13.57;;;9.90;99.90;;;;;;6153610;23;20392;-89
2021/09/23 04:48:08;;;;;;;22.80;13.40;;;9.90;99.90;;;;;;6130593;23;20749;-90
2021/09/23 04:50:35;;;;;;;19.53;13.83;;;10.00;99.90;;;;;;6143900;23;20444;-87
2021/09/23 04:53:01;;;;;;;18.20;12.00;;;9.90;99.90;;;;;;6151051;23;20392;-89
2021/09/23 04:55:29;;;;;;;18.03;14.80;;;9.90;99.90;;;;;;6130457;23;20432;-89
2021/09/23 04:57:55;;;;;;;29.87;17.00;;;9.90;99.90;;;;;;6129247;23;20422;-89
2021/09/23 05:00:22;;;;;;;20.50;14.57;;;9.90;99.90;;;;;;6128893;23;20444;-89
2021/09/23 05:02:49;;;;;;;22.47;15.87;;;9.90;99.90;;;;;;6131960;23;20407;-88
2021/09/23 05:05:17;;;;;;;18.77;15.77;;;9.90;99.90;;;;;;6137595;23;20422;-89
2021/09/23 05:07:44;;;;;;;27.13;16.90;;;9.90;99.90;;;;;;6130469;23;20399;-89
2021/09/23 05:10:11;;;;;;;21.00;14.37;;;9.90;99.90;;;;;;6129629;23;20423;-88
2021/09/23 05:12:38;;;;;;;25.70;17.00;;;10.00;99.90;;;;;;6130388;23;20408;-88
2021/09/23 05:15:06;;;;;;;22.80;16.93;;;10.00;99.90;;;;;;6129548;23;20412;-89
2021/09/23 05:17:33;;;;;;;20.53;17.23;;;10.00;99.90;;;;;;6129821;23;20407;-89
2021/09/23 05:20:00;;;;;;;23.43;17.07;;;10.00;99.90;;;;;;6130055;23;20949;-89
2021/09/23 05:22:28;;;;;;;17.90;15.80;;;10.00;99.90;;;;;;6130534;23;20404;-89
2021/09/23 05:24:55;;;;;;;22.23;16.43;;;9.90;99.90;;;;;;6134075;23;20418;-88
2021/09/23 05:27:22;;;;;;;21.40;15.50;;;9.90;99.90;;;;;;6143109;23;20483;-89
2021/09/23 05:29:49;;;;;;;19.20;16.77;;;9.90;99.90;;;;;;6148096;23;20506;-89
2021/09/23 05:32:16;;;;;;;25.40;16.90;;;10.00;99.90;;;;;;6134847;23;20898;-88
2021/09/23 05:34:42;;;;;;;26.40;16.90;;;10.10;99.90;;;;;;6153309;23;20470;-87
2021/09/23 05:37:09;;;;;;;21.23;16.50;;;10.10;99.90;;;;;;6152860;23;20439;-87
2021/09/23 05:39:37;;;;;;;18.97;16.50;;;10.10;99.90;;;;;;6149152;23;20420;-89
2021/09/23 05:42:05;;;;;;;23.90;17.43;;;10.20;99.90;;;;;;6141540;23;20380;-88
2021/09/23 05:44:32;;;;;;;26.00;19.03;;;10.20;99.90;;;;;;6140519;23;20408;-88
2021/09/23 05:46:59;;;;;;;21.57;16.97;;;10.20;99.90;;;;;;6132226;23;20418;-88
2021/09/23 05:49:26;;;;;;;26.80;16.00;;;10.20;99.90;;;;;;6132557;23;20448;-88
2021/09/23 05:51:55;;;;;;;21.37;16.30;;;10.20;99.90;;;;;;6135663;23;20418;-89
2021/09/23 05:54:22;;;;;;;22.90;16.50;;;10.20;99.90;;;;;;6134765;23;20471;-89
2021/09/23 05:56:50;;;;;;;26.27;17.27;;;10.30;99.90;;;;;;6130658;23;20395;-89
2021/09/23 05:59:18;;;;;;;21.83;17.13;;;10.20;99.90;;;;;;6133466;23;20431;-88
2021/09/23 06:01:45;;;;;;;27.60;19.83;;;10.20;99.90;;;;;;6140607;23;20471;-89
2021/09/23 06:04:12;;;;;;;26.60;17.93;;;10.30;99.90;;;;;;6135123;23;20396;-88
2021/09/23 06:06:38;;;;;;;18.27;16.30;;;10.30;99.90;;;;;;6141852;23;20463;-88
2021/09/23 06:09:05;;;;;;;17.83;15.90;;;10.30;99.90;;;;;;6137203;23;20478;-89
2021/09/23 06:11:33;;;;;;;22.83;17.77;;;10.40;99.90;;;;;;6129181;23;20433;-89
2021/09/23 06:14:01;;;;;;;21.33;18.33;;;10.40;99.90;;;;;;6130168;23;20423;-89
2021/09/23 06:16:27;;;;;;;27.20;16.90;;;10.40;99.90;;;;;;6129942;23;20408;-88
2021/09/23 06:18:54;;;;;;;31.73;18.50;;;10.50;99.90;;;;;;6133021;23;20435;-89
2021/09/23 06:21:21;;;;;;;34.30;20.43;;;10.50;99.90;;;;;;6144304;23;20417;-88
2021/09/23 06:23:48;;;;;;;19.80;17.53;;;10.50;99.90;;;;;;6140596;23;20411;-89
2021/09/23 06:26:15;;;;;;;24.00;17.37;;;10.60;99.90;;;;;;6129314;23;20885;-89
2021/09/23 06:28:41;;;;;;;22.40;18.20;;;10.60;99.90;;;;;;6127191;23;20458;-90
2021/09/23 06:31:10;;;;;;;22.80;17.10;;;10.70;99.90;;;;;;6127361;23;20411;-88
2021/09/23 06:33:36;;;;;;;24.23;18.03;;;10.80;99.90;;;;;;6128631;23;20492;-88
2021/09/23 06:36:04;;;;;;;25.80;17.60;;;10.80;99.90;;;;;;6128267;23;20408;-89
2021/09/23 06:38:31;;;;;;;30.53;21.33;;;10.90;99.90;;;;;;6128209;23;20388;-89
2021/09/23 06:40:58;;;;;;;25.57;18.30;;;10.90;99.90;;;;;;6142886;23;20418;-90
2021/09/23 06:43:25;;;;;;;21.60;17.77;;;10.90;99.90;;;;;;6127651;23;20492;-90
2021/09/23 06:45:52;;;;;;;23.00;20.13;;;11.00;99.90;;;;;;6127032;23;20496;-90
2021/09/23 06:48:20;;;;;;;25.97;18.93;;;11.10;99.90;;;;;;6126770;23;20406;-89
2021/09/23 06:50:47;;;;;;;21.60;17.07;;;11.20;99.90;;;;;;6126774;23;20419;-89
2021/09/23 06:53:13;;;;;;;21.93;17.00;;;11.20;99.90;;;;;;6127912;23;20600;-90
2021/09/23 06:55:40;;;;;;;21.40;17.27;;;11.30;99.90;;;;;;6127426;23;20403;-90
2021/09/23 06:58:07;;;;;;;22.77;16.93;;;11.40;99.90;;;;;;6147589;23;20487;-89
2021/09/23 07:00:34;;;;;;;21.93;17.80;;;11.40;99.90;;;;;;6145469;23;20451;-89
2021/09/23 07:03:00;;;;;;;20.60;18.00;;;11.50;99.90;;;;;;6128500;23;20422;-90
2021/09/23 07:05:29;;;;;;;24.03;17.90;;;11.60;99.90;;;;;;6129406;23;20397;-90
2021/09/23 07:07:56;;;;;;;22.43;17.40;;;11.70;99.90;;;;;;6137046;23;20388;-88
2021/09/23 07:10:22;;;;;;;19.57;16.80;;;11.80;99.90;;;;;;6132418;23;20498;-90
2021/09/23 07:12:49;;;;;;;21.60;17.53;;;11.80;99.90;;;;;;6127101;23;20412;-89
2021/09/23 07:15:16;;;;;;;20.77;18.57;;;11.90;99.90;;;;;;6128411;23;20402;-90
2021/09/23 07:17:43;;;;;;;20.90;18.67;;;11.90;99.90;;;;;;6136497;23;20395;-88
2021/09/23 07:20:11;;;;;;;21.00;18.80;;;12.00;99.90;;;;;;6147602;23;20517;-89
2021/09/23 07:22:41;;;;;;;21.50;18.10;;;12.10;99.90;;;;;;6128888;23;20408;-90
2021/09/23 07:25:08;;;;;;;27.07;18.70;;;12.20;99.90;;;;;;6127588;23;20427;-90
2021/09/23 07:27:35;;;;;;;20.77;17.27;;;12.50;99.90;;;;;;6128104;23;20415;-90
2021/09/23 07:30:02;;;;;;;27.30;18.50;;;12.70;99.90;;;;;;6134528;23;20957;-84
2021/09/23 07:32:28;;;;;;;25.33;20.17;;;12.80;99.90;;;;;;6140268;23;20483;-84
2021/09/23 07:34:55;;;;;;;20.90;18.70;;;12.80;99.90;;;;;;6153449;23;20418;-84
2021/09/23 07:37:22;;;;;;;22.83;17.80;;;12.90;99.90;;;;;;6153972;23;20420;-84
2021/09/23 07:39:50;;;;;;;25.33;16.63;;;13.00;99.90;;;;;;6153588;23;20444;-84
2021/09/23 07:42:17;;;;;;;23.27;15.80;;;13.10;99.90;;;;;;6152799;23;20385;-84
2021/09/23 07:44:44;;;;;;;22.87;16.97;;;13.20;99.90;;;;;;6152657;23;20482;-85
2021/09/23 07:47:10;;;;;;;26.00;17.97;;;13.40;99.90;;;;;;6146766;23;20407;-83
2021/09/23 07:49:59;;;;;;;19.07;15.80;;;13.60;99.90;;;;;;6148797;23;20462;-82
2021/09/23 07:52:26;;;;;;;19.70;15.83;;;13.70;99.90;;;;;;6153244;23;20400;-81
2021/09/23 07:54:55;;;;;;;24.93;17.63;;;13.90;99.90;;;;;;6154216;23;20419;-81
2021/09/23 07:57:25;;;;;;;23.70;15.17;;;14.10;99.90;;;;;;6149953;23;20393;-84
2021/09/23 07:59:52;;;;;;;16.60;14.90;;;14.30;99.90;;;;;;6139285;23;20437;-84
2021/09/23 08:02:22;;;;;;;19.03;15.33;;;14.40;99.90;;;;;;6136845;23;20392;-91
2021/09/23 08:04:49;;;;;;;21.03;15.27;;;14.50;99.90;;;;;;6131913;23;20444;-90
2021/09/23 08:07:17;;;;;;;20.63;14.20;;;14.50;99.90;;;;;;6131427;23;20394;-90
2021/09/23 08:09:45;;;;;;;16.43;13.70;;;14.50;99.90;;;;;;6132606;23;20446;-91
2021/09/23 08:12:17;;;;;;;15.97;12.73;;;14.50;99.90;;;;;;6129953;23;20787;-90
2021/09/23 08:14:44;;;;;;;17.53;12.77;;;14.50;99.90;;;;;;6129136;23;20424;-90
2021/09/23 08:17:18;;;;;;;18.60;14.37;;;14.50;99.90;;;;;;6129621;23;20442;-90
2021/09/23 08:19:45;;;;;;;24.77;13.93;;;14.60;99.90;;;;;;6128979;23;20478;-91
2021/09/23 08:22:12;;;;;;;17.13;14.03;;;14.60;99.90;;;;;;6129002;23;20473;-90
2021/09/23 08:24:43;;;;;;;20.40;12.10;;;14.80;99.90;;;;;;6133755;23;20521;-91
2021/09/23 08:27:10;;;;;;;12.93;10.43;;;15.00;99.90;;;;;;6129198;23;20388;-91
2021/09/23 08:29:38;;;;;;;15.50;11.77;;;15.10;99.90;;;;;;6128618;23;20868;-91
2021/09/23 08:32:07;;;;;;;15.40;10.70;;;15.30;99.90;;;;;;6129306;23;20498;-91
2021/09/23 08:34:34;;;;;;;15.30;11.50;;;15.60;99.90;;;;;;6141832;23;20475;-90
2021/09/23 08:37:03;;;;;;;13.90;12.00;;;15.90;99.90;;;;;;6140628;23;20416;-90
2021/09/23 08:39:30;;;;;;;19.37;12.70;;;16.00;99.90;;;;;;6141237;23;20423;-91
2021/09/23 08:41:58;;;;;;;17.37;12.83;;;16.10;99.90;;;;;;6135025;23;20404;-91
2021/09/23 08:44:25;;;;;;;15.97;11.97;;;16.20;99.90;;;;;;6131134;23;20451;-91
2021/09/23 08:46:53;;;;;;;12.07;10.43;;;16.20;99.90;;;;;;6130491;23;20396;-90
2021/09/23 08:49:20;;;;;;;15.20;10.63;;;16.40;99.90;;;;;;6134203;23;20739;-91
2021/09/23 08:51:47;;;;;;;12.63;11.30;;;16.60;99.90;;;;;;6137728;23;20494;-91
2021/09/23 08:54:17;;;;;;;14.97;11.17;;;16.80;99.90;;;;;;6141084;23;20416;-90
2021/09/23 08:56:45;;;;;;;15.07;10.27;;;16.90;99.90;;;;;;6130185;23;20500;-90
2021/09/23 08:59:12;;;;;;;11.60;8.40;;;17.00;99.90;;;;;;6143635;23;20455;-90
2021/09/23 09:01:48;;;;;;;10.87;9.20;;;17.30;99.90;;;;;;6146847;23;20402;-90
2021/09/23 09:04:25;;;;;;;10.30;9.30;;;19.20;99.90;;;;;;6149959;23;20856;-89
2021/09/23 09:06:55;;;;;;;14.20;10.30;;;21.70;99.90;;;;;;6142692;23;20433;-91
2021/09/23 09:09:28;;;;;;;15.87;9.87;;;24.40;96.10;;;;;;6152219;23;20543;-90
2021/09/23 09:11:57;;;;;;;10.83;9.93;;;26.40;84.40;;;;;;6128902;23;20416;-90
2021/09/23 09:17:12;;;;;;;10.73;8.40;;;30.10;60.40;;;;;;6126600;23;20410;-90
2021/09/23 09:19:46;;;;;;;16.27;8.13;;;31.10;55.90;;;;;;6127975;23;20455;-90
2021/09/23 09:22:15;;;;;;;10.20;9.03;;;32.50;52.80;;;;;;6129993;23;20415;-90
2021/09/23 09:24:56;;;;;;;12.77;8.70;;;33.50;49.50;;;;;;6129105;23;20402;-90
2021/09/23 09:27:38;;;;;;;7.60;6.80;;;32.90;48.20;;;;;;6127676;23;20761;-91
2021/09/23 09:30:13;;;;;;;11.33;7.43;;;32.40;48.70;;;;;;6128143;23;20515;-90
2021/09/23 09:32:43;;;;;;;9.83;7.63;;;32.70;47.60;;;;;;6127681;23;20418;-90
2021/09/23 09:35:16;;;;;;;10.90;7.60;;;33.20;46.80;;;;;;6151003;23;20415;-90
2021/09/23 09:37:46;;;;;;;10.20;7.93;;;34.70;45.20;;;;;;6148886;23;20408;-91
2021/09/23 09:40:20;;;;;;;7.87;6.30;;;35.40;43.60;;;;;;6132434;23;20420;-90
2021/09/23 09:42:51;;;;;;;7.73;6.43;;;34.90;42.60;;;;;;6130609;23;20498;-90
2021/09/23 09:45:21;;;;;;;8.13;6.03;;;34.70;41.90;;;;;;6131577;23;20415;-91
2021/09/23 09:47:55;;;;;;;6.67;6.00;;;34.00;43.30;;;;;;6128678;23;20415;-90
2021/09/23 09:50:32;;;;;;;7.30;6.60;;;33.30;43.10;;;;;;6129287;23;20463;-90
2021/09/23 09:53:03;;;;;;;7.87;6.00;;;31.80;45.60;;;;;;6127728;23;20412;-90
2021/09/23 09:55:32;;;;;;;6.77;6.07;;;31.60;46.00;;;;;;6126508;23;20419;-90
2021/09/23 09:58:02;;;;;;;5.87;5.27;;;32.70;45.50;;;;;;6127374;23;20470;-90
2021/09/23 10:00:31;;;;;;;6.23;5.70;;;33.70;44.70;;;;;;6140041;23;20467;-90
2021/09/23 10:02:58;;;;;;;5.97;5.47;;;33.70;43.30;;;;;;6127563;23;20435;-90
2021/09/23 10:05:26;;;;;;;6.07;4.83;;;33.90;42.80;;;;;;6131691;23;20412;-90
2021/09/23 10:07:58;;;;;;;7.80;4.90;;;33.20;43.30;;;;;;6133890;23;20858;-91
2021/09/23 10:10:28;;;;;;;7.20;5.00;;;33.40;43.50;;;;;;6130336;23;20490;-92
2021/09/23 10:13:02;;;;;;;5.40;4.90;;;34.70;42.80;;;;;;6133784;23;20439;-91
2021/09/23 10:15:30;;;;;;;5.60;5.10;;;34.90;42.30;;;;;;6134174;23;20454;-92
2021/09/23 10:18:00;;;;;;;6.33;4.40;;;35.00;41.10;;;;;;6149968;23;20402;-91
2021/09/23 10:20:28;;;;;;;5.00;4.60;;;34.40;41.70;;;;;;6152129;23;20424;-92
2021/09/23 10:23:00;;;;;;;6.40;5.33;;;34.50;41.60;;;;;;6152450;23;20408;-91
2021/09/23 10:25:32;;;;;;;5.40;4.80;;;35.40;41.20;;;;;;6152401;23;20463;-93
2021/09/23 10:28:01;;;;;;;6.60;5.27;;;34.60;41.30;;;;;;6151147;23;20435;-93
2021/09/23 10:30:44;;;;;;;4.53;4.13;;;35.60;41.70;;;;;;6151581;23;20435;-91
2021/09/23 10:33:17;;;;;;;6.07;4.67;;;35.50;40.70;;;;;;6138461;23;20396;-89
2021/09/23 10:35:45;;;;;;;5.17;4.03;;;37.10;39.00;;;;;;6137395;23;20391;-91
2021/09/23 10:38:14;;;;;;;6.50;3.80;;;36.90;38.80;;;;;;6129263;23;20581;-91
2021/09/23 10:40:43;;;;;;;5.33;3.97;;;37.30;36.80;;;;;;6129694;23;20420;-91
2021/09/23 10:43:14;;;;;;;4.20;3.90;;;37.20;37.70;;;;;;6128130;23;20439;-91
2021/09/23 10:45:43;;;;;;;6.20;3.60;;;36.80;37.80;;;;;;6130515;23;20427;-90
2021/09/23 10:48:10;;;;;;;7.90;4.13;;;37.00;37.60;;;;;;6134340;23;20400;-91
2021/09/23 10:50:39;;;;;;;7.37;3.87;;;36.30;38.30;;;;;;6150823;23;20458;-90
2021/09/23 10:53:09;;;;;;;4.10;3.63;;;35.60;39.50;;;;;;6134265;23;20416;-89
2021/09/23 10:55:39;;;;;;;5.63;3.20;;;35.60;38.60;;;;;;6128076;23;20411;-91
2021/09/23 10:58:08;;;;;;;6.00;3.83;;;37.20;37.80;;;;;;6128076;23;20821;-91
2021/09/23 11:00:36;;;;;;;4.13;3.40;;;38.90;35.80;;;;;;6126682;23;20508;-92
2021/09/23 11:03:05;;;;;;;3.50;3.20;;;39.50;34.20;;;;;;6127229;23;20415;-91
2021/09/23 11:05:32;;;;;;;4.80;3.70;;;39.00;34.10;;;;;;6126741;23;20416;-90
2021/09/23 11:08:03;;;;;;;3.77;3.37;;;37.50;35.10;;;;;;6140859;23;20499;-92
2021/09/23 11:10:38;;;;;;;5.47;4.03;;;37.70;36.00;;;;;;6126691;23;20447;-91
2021/09/23 11:13:06;;;;;;;3.90;3.20;;;38.70;34.70;;;;;;6128787;23;20413;-91
2021/09/23 11:15:34;;;;;;;4.00;3.60;;;39.70;33.40;;;;;;6129133;23;20415;-91
2021/09/23 11:18:01;;;;;;;3.43;3.13;;;40.80;32.30;;;;;;6130343;23;20460;-91
2021/09/23 11:20:31;;;;;;;3.60;3.23;;;41.40;31.10;;;;;;6132269;23;20833;-90
2021/09/23 11:23:00;;;;;;;3.77;3.10;;;41.60;30.20;;;;;;6147436;23;20794;-91
2021/09/23 11:29:28;;;;;;;3.60;3.30;;;40.90;30.40;;;;;;6041058;23;20398;-90
2021/09/23 11:32:33;;;;;;;3.23;2.93;;;41.20;30.20;;;;;;6043990;23;20434;-92
2021/09/23 11:38:21;;;;;;;3.47;3.17;;;38.30;32.80;;;;;;6101848;23;20403;-91
2021/09/23 11:40:58;;;;;;;3.90;3.40;;;38.10;33.30;;;;;;6131704;23;20515;-91
2021/09/23 11:43:54;;;;;;;4.50;3.07;;;38.90;32.00;;;;;;6131764;23;20419;-91
2021/09/23 11:46:45;;;;;;;3.30;3.00;;;38.80;31.90;;;;;;6134792;23;20990;-91
2021/09/23 11:49:30;;;;;;;3.20;2.90;;;37.80;33.00;;;;;;6145928;23;20420;-90
2021/09/23 12:12:15;;;;;;;3.03;2.83;;;38.60;30.30;;;;;;6018636;23;20451;-88
2021/09/23 12:15:40;;;;;;;3.10;2.80;;;37.60;31.00;;;;;;5906829;24;20679;-91
2021/09/23 12:18:56;;;;;;;3.47;3.07;;;37.70;31.70;;;;;;5916313;23;20419;-92
2021/09/23 12:28:49;;;;;;;2.80;2.60;;;38.90;28.00;;;;;;6084417;23;20799;-90
2021/09/23 12:31:39;;;;;;;3.20;3.00;;;40.10;27.50;;;;;;6089639;23;20436;-92
2021/09/23 12:34:28;;;;;;;3.30;3.00;;;38.80;28.20;;;;;;6119777;23;20407;-92
2021/09/23 12:37:07;;;;;;;3.37;3.10;;;38.40;29.00;;;;;;6150959;23;20420;-92
2021/09/23 12:39:46;;;;;;;3.60;3.30;;;38.60;28.50;;;;;;6143878;23;20434;-93
2021/09/23 12:42:22;;;;;;;3.43;3.13;;;38.10;27.90;;;;;;6144979;23;20387;-92
2021/09/23 12:44:59;;;;;;;3.30;3.10;;;38.30;28.00;;;;;;6139454;23;20494;-92
2021/09/23 12:47:44;;;;;;;4.13;3.40;;;39.00;27.70;;;;;;6141714;23;20400;-92
2021/09/23 12:50:21;;;;;;;2.93;2.60;;;39.80;27.20;;;;;;6150510;23;20396;-92
2021/09/23 12:55:32;;;;;;;2.23;2.13;;;36.90;28.20;;;;;;6145996;23;20495;-92
2021/09/23 12:58:02;;;;;;;3.70;3.47;;;36.90;29.20;;;;;;6143978;23;20439;-91
2021/09/23 13:01:24;;;;;;;6.33;3.37;;;38.20;28.40;;;;;;6132997;23;20400;-92
2021/09/23 13:03:51;;;;;;;3.47;3.17;;;39.00;28.40;;;;;;6134898;23;20422;-93
2021/09/23 13:06:34;;;;;;;2.87;2.67;;;40.20;27.40;;;;;;6137578;23;20455;-92
2021/09/23 13:09:24;;;;;;;3.40;3.10;;;40.00;27.10;;;;;;6141728;23;20383;-94
2021/09/23 13:12:11;;;;;;;4.10;3.80;;;39.40;27.80;;;;;;6132548;23;20438;-92
2021/09/23 13:14:52;;;;;;;3.87;3.00;;;39.80;27.70;;;;;;6129442;23;20424;-91
2021/09/23 13:18:06;;;;;;;3.87;3.40;;;37.40;29.20;;;;;;6131307;23;20372;-92
2021/09/23 13:20:46;;;;;;;4.20;3.37;;;35.40;32.10;;;;;;6117141;23;20462;-92
2021/09/23 13:23:17;;;;;;;4.67;3.77;;;33.30;35.70;;;;;;6129933;23;20396;-92
2021/09/23 13:29:06;;;;;;;4.40;4.00;;;31.10;40.20;;;;;;6125954;23;20417;-92